sensor_id;sensor_type;location;lat;lon;timestamp;temperature;humidity
33699;DHT22;20032;52.436;13.312;2022-07-23T00:00:27;19.20;99.90
33699;DHT22;20032;52.436;13.312;2022-07-23T00:02:52;19.20;99.90
33699;DHT22;20032;52.436;13.312;2022-07-23T00:05:18;19.20;99.90
33699;DHT22;20032;52.436;13.312;2022-07-23T00:07:43;19.00;99.90
33699;DHT22;20032;52.436;13.312;2022-07-23T00:10:09;19.10;99.90
33699;DHT22;20032;52.436;13.312;2022-07-23T00:12:35;19.00;99.90
33699;DHT22;20032;52.436;13.312;2022-07-23T00:15:01;18.90;99.90
33699;DHT22;20032;52.436;13.312;2022-07-23T00:17:27;18.80;99.90
33699;DHT22;20032;52.436;13.312;2022-07-23T00:19:53;18.90;99.90
33699;DHT22;20032;52.436;13.312;2022-07-23T00:22:19;18.90;99.90
33699;DHT22;20032;52.436;13.312;2022-07-23T00:24:44;19.00;99.90
33699;DHT22;20032;52.436;13.312;2022-07-23T00:27:10;19.00;99.90
33699;DHT22;20032;52.436;13.312;2022-07-23T00:29:35;19.10;99.90
33699;DHT22;20032;52.436;13.312;2022-07-23T00:32:01;19.10;99.90
33699;DHT22;20032;52.436;13.312;2022-07-23T00:34:26;18.90;99.90
33699;DHT22;20032;52.436;13.312;2022-07-23T00:36:52;18.90;99.90
33699;DHT22;20032;52.436;13.312;2022-07-23T00:39:19;18.90;99.90
33699;DHT22;20032;52.436;13.312;2022-07-23T00:41:46;19.00;99.90
33699;DHT22;20032;52.436;13.312;2022-07-23T00:46:46;18.90;99.90
33699;DHT22;20032;52.436;13.312;2022-07-23T00:49:12;18.90;99.90
33699;DHT22;20032;52.436;13.312;2022-07-23T00:51:37;18.80;99.90
33699;DHT22;20032;52.436;13.312;2022-07-23T00:54:03;18.80;99.90
33699;DHT22;20032;52.436;13.312;2022-07-23T00:56:29;18.80;99.90
33699;DHT22;20032;52.436;13.312;2022-07-23T00:58:55;18.90;99.90
33699;DHT22;20032;52.436;13.312;2022-07-23T01:01:21;18.80;99.90
33699;DHT22;20032;52.436;13.312;2022-07-23T01:03:47;18.80;99.90
33699;DHT22;20032;52.436;13.312;2022-07-23T01:06:13;18.70;99.90
33699;DHT22;20032;52.436;13.312;2022-07-23T01:08:39;18.70;99.90
33699;DHT22;20032;52.436;13.312;2022-07-23T01:11:05;18.70;99.90
33699;DHT22;20032;52.436;13.312;2022-07-23T01:13:31;18.80;99.90
33699;DHT22;20032;52.436;13.312;2022-07-23T01:15:56;18.70;99.90
33699;DHT22;20032;52.436;13.312;2022-07-23T01:18:21;18.60;99.90
33699;DHT22;20032;52.436;13.312;2022-07-23T01:20:47;18.60;99.90
33699;DHT22;20032;52.436;13.312;2022-07-23T01:23:12;18.50;99.90
33699;DHT22;20032;52.436;13.312;2022-07-23T01:25:47;18.50;99.90
33699;DHT22;20032;52.436;13.312;2022-07-23T01:28:13;18.40;99.90
33699;DHT22;20032;52.436;13.312;2022-07-23T01:30:38;18.40;99.90
33699;DHT22;20032;52.436;13.312;2022-07-23T01:33:04;18.40;99.90
33699;DHT22;20032;52.436;13.312;2022-07-23T01:35:29;18.30;99.90
33699;DHT22;20032;52.436;13.312;2022-07-23T01:37:55;18.30;99.90
33699;DHT22;20032;52.436;13.312;2022-07-23T01:40:20;18.20;99.90
33699;DHT22;20032;52.436;13.312;2022-07-23T01:42:46;18.20;99.90
33699;DHT22;20032;52.436;13.312;2022-07-23T01:45:11;18.10;99.90
33699;DHT22;20032;52.436;13.312;2022-07-23T01:47:37;18.00;99.90
33699;DHT22;20032;52.436;13.312;2022-07-23T01:50:03;18.10;99.90
33699;DHT22;20032;52.436;13.312;2022-07-23T01:52:28;18.10;99.90
33699;DHT22;20032;52.436;13.312;2022-07-23T01:54:54;18.00;99.90
33699;DHT22;20032;52.436;13.312;2022-07-23T01:57:19;18.00;99.90
33699;DHT22;20032;52.436;13.312;2022-07-23T01:59:45;18.10;99.90
33699;DHT22;20032;52.436;13.312;2022-07-23T02:02:10;17.90;99.90
33699;DHT22;20032;52.436;13.312;2022-07-23T02:04:36;17.90;99.90
33699;DHT22;20032;52.436;13.312;2022-07-23T02:07:02;17.90;99.90
33699;DHT22;20032;52.436;13.312;2022-07-23T02:09:28;17.90;99.90
33699;DHT22;20032;52.436;13.312;2022-07-23T02:11:54;18.00;99.90
33699;DHT22;20032;52.436;13.312;2022-07-23T02:14:19;17.90;99.90
33699;DHT22;20032;52.436;13.312;2022-07-23T02:16:44;17.90;99.90
33699;DHT22;20032;52.436;13.312;2022-07-23T02:19:10;17.90;99.90
33699;DHT22;20032;52.436;13.312;2022-07-23T02:21:36;17.90;99.90
33699;DHT22;20032;52.436;13.312;2022-07-23T02:24:01;17.90;99.90
33699;DHT22;20032;52.436;13.312;2022-07-23T02:26:26;18.00;99.90
33699;DHT22;20032;52.436;13.312;2022-07-23T02:28:52;18.10;99.90
33699;DHT22;20032;52.436;13.312;2022-07-23T02:31:19;18.00;99.90
33699;DHT22;20032;52.436;13.312;2022-07-23T02:33:45;18.10;99.90
33699;DHT22;20032;52.436;13.312;2022-07-23T02:36:10;18.10;99.90
33699;DHT22;20032;52.436;13.312;2022-07-23T02:38:36;18.00;99.90
33699;DHT22;20032;52.436;13.312;2022-07-23T02:41:01;18.00;99.90
33699;DHT22;20032;52.436;13.312;2022-07-23T02:43:27;18.20;99.90
33699;DHT22;20032;52.436;13.312;2022-07-23T02:45:52;18.20;99.90
33699;DHT22;20032;52.436;13.312;2022-07-23T02:48:18;18.00;99.90
33699;DHT22;20032;52.436;13.312;2022-07-23T02:50:43;18.00;99.90
33699;DHT22;20032;52.436;13.312;2022-07-23T02:53:08;18.00;99.90
33699;DHT22;20032;52.436;13.312;2022-07-23T02:55:34;17.90;99.90
33699;DHT22;20032;52.436;13.312;2022-07-23T02:58:00;17.90;99.90
33699;DHT22;20032;52.436;13.312;2022-07-23T03:00:25;17.90;99.90
33699;DHT22;20032;52.436;13.312;2022-07-23T03:02:51;17.90;99.90
33699;DHT22;20032;52.436;13.312;2022-07-23T03:05:16;17.90;99.90
33699;DHT22;20032;52.436;13.312;2022-07-23T03:07:41;18.00;99.90
33699;DHT22;20032;52.436;13.312;2022-07-23T03:10:07;18.00;99.90
33699;DHT22;20032;52.436;13.312;2022-07-23T03:12:33;17.90;99.90
33699;DHT22;20032;52.436;13.312;2022-07-23T03:14:58;17.90;99.90
33699;DHT22;20032;52.436;13.312;2022-07-23T03:17:24;17.90;99.90
33699;DHT22;20032;52.436;13.312;2022-07-23T03:19:49;17.90;99.90
33699;DHT22;20032;52.436;13.312;2022-07-23T03:22:15;17.70;99.90
33699;DHT22;20032;52.436;13.312;2022-07-23T03:24:40;17.70;99.90
33699;DHT22;20032;52.436;13.312;2022-07-23T03:27:23;17.90;99.90
33699;DHT22;20032;52.436;13.312;2022-07-23T03:29:50;17.80;99.90
33699;DHT22;20032;52.436;13.312;2022-07-23T03:32:15;17.80;99.90
33699;DHT22;20032;52.436;13.312;2022-07-23T03:34:41;17.80;99.90
33699;DHT22;20032;52.436;13.312;2022-07-23T03:37:06;17.80;99.90
33699;DHT22;20032;52.436;13.312;2022-07-23T03:39:32;17.90;99.90
33699;DHT22;20032;52.436;13.312;2022-07-23T03:41:57;18.00;99.90
33699;DHT22;20032;52.436;13.312;2022-07-23T03:44:23;18.00;99.90
33699;DHT22;20032;52.436;13.312;2022-07-23T03:46:48;18.00;99.90
33699;DHT22;20032;52.436;13.312;2022-07-23T03:49:14;17.90;99.90
33699;DHT22;20032;52.436;13.312;2022-07-23T03:51:40;17.90;99.90
33699;DHT22;20032;52.436;13.312;2022-07-23T03:54:05;18.00;99.90
33699;DHT22;20032;52.436;13.312;2022-07-23T03:56:30;18.00;99.90
33699;DHT22;20032;52.436;13.312;2022-07-23T03:58:56;17.90;99.90
33699;DHT22;20032;52.436;13.312;2022-07-23T04:01:22;17.90;99.90
33699;DHT22;20032;52.436;13.312;2022-07-23T04:03:47;18.00;99.90
33699;DHT22;20032;52.436;13.312;2022-07-23T04:06:13;18.00;99.90
33699;DHT22;20032;52.436;13.312;2022-07-23T04:08:38;18.10;99.90
33699;DHT22;20032;52.436;13.312;2022-07-23T04:11:04;17.90;99.90
33699;DHT22;20032;52.436;13.312;2022-07-23T04:13:29;17.70;99.90
33699;DHT22;20032;52.436;13.312;2022-07-23T04:15:55;17.60;99.90
33699;DHT22;20032;52.436;13.312;2022-07-23T04:18:21;17.40;99.90
33699;DHT22;20032;52.436;13.312;2022-07-23T04:20:50;17.40;99.90
33699;DHT22;20032;52.436;13.312;2022-07-23T04:23:16;17.40;99.90
33699;DHT22;20032;52.436;13.312;2022-07-23T04:25:42;17.40;99.90
33699;DHT22;20032;52.436;13.312;2022-07-23T04:28:08;17.40;99.90
33699;DHT22;20032;52.436;13.312;2022-07-23T04:30:33;17.50;99.90
33699;DHT22;20032;52.436;13.312;2022-07-23T04:32:59;17.50;99.90
33699;DHT22;20032;52.436;13.312;2022-07-23T04:35:24;17.30;99.90
33699;DHT22;20032;52.436;13.312;2022-07-23T04:37:50;17.30;99.90
33699;DHT22;20032;52.436;13.312;2022-07-23T04:40:15;17.30;99.90
33699;DHT22;20032;52.436;13.312;2022-07-23T04:42:41;17.20;99.90
33699;DHT22;20032;52.436;13.312;2022-07-23T04:45:07;17.10;99.90
33699;DHT22;20032;52.436;13.312;2022-07-23T04:47:32;17.10;99.90
33699;DHT22;20032;52.436;13.312;2022-07-23T04:49:58;17.10;99.90
33699;DHT22;20032;52.436;13.312;2022-07-23T04:52:23;17.00;99.90
33699;DHT22;20032;52.436;13.312;2022-07-23T04:54:49;16.90;99.90
33699;DHT22;20032;52.436;13.312;2022-07-23T04:57:15;16.80;99.90
33699;DHT22;20032;52.436;13.312;2022-07-23T04:59:40;16.60;99.90
33699;DHT22;20032;52.436;13.312;2022-07-23T05:02:06;16.50;99.90
33699;DHT22;20032;52.436;13.312;2022-07-23T05:04:31;16.50;99.90
33699;DHT22;20032;52.436;13.312;2022-07-23T05:06:57;16.50;99.90
33699;DHT22;20032;52.436;13.312;2022-07-23T05:09:23;16.40;99.90
33699;DHT22;20032;52.436;13.312;2022-07-23T05:11:49;16.40;99.90
33699;DHT22;20032;52.436;13.312;2022-07-23T05:14:14;16.50;99.90
33699;DHT22;20032;52.436;13.312;2022-07-23T05:16:40;16.40;99.90
33699;DHT22;20032;52.436;13.312;2022-07-23T05:19:06;16.50;99.90
33699;DHT22;20032;52.436;13.312;2022-07-23T05:21:32;16.50;99.90
33699;DHT22;20032;52.436;13.312;2022-07-23T05:23:57;16.60;99.90
33699;DHT22;20032;52.436;13.312;2022-07-23T05:26:23;16.50;99.90
33699;DHT22;20032;52.436;13.312;2022-07-23T05:28:49;16.40;99.90
33699;DHT22;20032;52.436;13.312;2022-07-23T05:31:15;16.40;99.90
33699;DHT22;20032;52.436;13.312;2022-07-23T05:33:40;16.40;99.90
33699;DHT22;20032;52.436;13.312;2022-07-23T05:36:06;16.40;99.90
33699;DHT22;20032;52.436;13.312;2022-07-23T05:38:32;16.50;99.90
33699;DHT22;20032;52.436;13.312;2022-07-23T05:40:58;16.60;99.90
33699;DHT22;20032;52.436;13.312;2022-07-23T05:43:23;16.60;99.90
33699;DHT22;20032;52.436;13.312;2022-07-23T05:45:49;16.50;99.90
33699;DHT22;20032;52.436;13.312;2022-07-23T05:48:14;16.50;99.90
33699;DHT22;20032;52.436;13.312;2022-07-23T05:50:40;16.60;99.90
33699;DHT22;20032;52.436;13.312;2022-07-23T05:53:05;16.60;99.90
33699;DHT22;20032;52.436;13.312;2022-07-23T05:55:31;16.70;99.90
33699;DHT22;20032;52.436;13.312;2022-07-23T05:57:57;16.70;99.90
33699;DHT22;20032;52.436;13.312;2022-07-23T06:00:22;16.60;99.90
33699;DHT22;20032;52.436;13.312;2022-07-23T06:02:48;16.60;99.90
33699;DHT22;20032;52.436;13.312;2022-07-23T06:05:13;16.40;99.90
33699;DHT22;20032;52.436;13.312;2022-07-23T06:07:39;16.40;99.90
33699;DHT22;20032;52.436;13.312;2022-07-23T06:10:05;16.40;99.90
33699;DHT22;20032;52.436;13.312;2022-07-23T06:12:31;16.30;99.90
33699;DHT22;20032;52.436;13.312;2022-07-23T06:14:56;16.40;99.90
33699;DHT22;20032;52.436;13.312;2022-07-23T06:17:22;16.40;99.90
33699;DHT22;20032;52.436;13.312;2022-07-23T06:19:47;16.50;99.90
33699;DHT22;20032;52.436;13.312;2022-07-23T06:22:13;16.50;99.90
33699;DHT22;20032;52.436;13.312;2022-07-23T06:24:38;16.70;99.90
33699;DHT22;20032;52.436;13.312;2022-07-23T06:27:04;16.60;99.90
33699;DHT22;20032;52.436;13.312;2022-07-23T06:29:29;16.60;99.90
33699;DHT22;20032;52.436;13.312;2022-07-23T06:31:55;16.60;99.90
33699;DHT22;20032;52.436;13.312;2022-07-23T06:34:20;16.60;99.90
33699;DHT22;20032;52.436;13.312;2022-07-23T06:36:46;16.70;99.90
33699;DHT22;20032;52.436;13.312;2022-07-23T06:39:11;16.70;99.90
33699;DHT22;20032;52.436;13.312;2022-07-23T06:41:37;16.70;99.90
33699;DHT22;20032;52.436;13.312;2022-07-23T06:44:02;16.70;99.90
33699;DHT22;20032;52.436;13.312;2022-07-23T06:46:28;16.70;99.90
33699;DHT22;20032;52.436;13.312;2022-07-23T06:48:53;16.60;99.90
33699;DHT22;20032;52.436;13.312;2022-07-23T06:51:19;16.80;99.90
33699;DHT22;20032;52.436;13.312;2022-07-23T06:53:44;16.80;99.90
33699;DHT22;20032;52.436;13.312;2022-07-23T06:56:10;16.70;99.90
33699;DHT22;20032;52.436;13.312;2022-07-23T06:58:35;16.80;99.90
33699;DHT22;20032;52.436;13.312;2022-07-23T07:01:01;16.70;99.90
33699;DHT22;20032;52.436;13.312;2022-07-23T07:03:26;16.60;99.90
33699;DHT22;20032;52.436;13.312;2022-07-23T07:05:52;16.60;99.90
33699;DHT22;20032;52.436;13.312;2022-07-23T07:08:18;16.80;99.90
33699;DHT22;20032;52.436;13.312;2022-07-23T07:10:44;16.90;99.90
33699;DHT22;20032;52.436;13.312;2022-07-23T07:13:09;16.80;99.90
33699;DHT22;20032;52.436;13.312;2022-07-23T07:15:35;16.90;99.90
33699;DHT22;20032;52.436;13.312;2022-07-23T07:18:00;17.10;99.90
33699;DHT22;20032;52.436;13.312;2022-07-23T07:20:26;17.00;99.90
33699;DHT22;20032;52.436;13.312;2022-07-23T07:22:51;17.10;99.90
33699;DHT22;20032;52.436;13.312;2022-07-23T07:25:18;17.00;99.90
33699;DHT22;20032;52.436;13.312;2022-07-23T07:27:43;17.10;99.90
33699;DHT22;20032;52.436;13.312;2022-07-23T07:30:09;17.20;99.90
33699;DHT22;20032;52.436;13.312;2022-07-23T07:32:35;17.20;99.90
33699;DHT22;20032;52.436;13.312;2022-07-23T07:35:03;17.20;99.90
33699;DHT22;20032;52.436;13.312;2022-07-23T07:37:28;17.10;99.90
33699;DHT22;20032;52.436;13.312;2022-07-23T07:39:54;17.20;99.90
33699;DHT22;20032;52.436;13.312;2022-07-23T07:42:20;17.40;99.90
33699;DHT22;20032;52.436;13.312;2022-07-23T07:44:45;17.40;99.90
33699;DHT22;20032;52.436;13.312;2022-07-23T07:47:11;17.30;99.90
33699;DHT22;20032;52.436;13.312;2022-07-23T07:49:36;17.20;99.90
33699;DHT22;20032;52.436;13.312;2022-07-23T07:52:02;17.20;99.90
33699;DHT22;20032;52.436;13.312;2022-07-23T07:54:28;17.30;99.90
33699;DHT22;20032;52.436;13.312;2022-07-23T07:56:53;17.40;99.90
33699;DHT22;20032;52.436;13.312;2022-07-23T07:59:19;17.40;99.90
33699;DHT22;20032;52.436;13.312;2022-07-23T08:01:44;17.50;99.90
33699;DHT22;20032;52.436;13.312;2022-07-23T08:04:10;17.70;99.90
33699;DHT22;20032;52.436;13.312;2022-07-23T08:06:36;17.90;99.90
33699;DHT22;20032;52.436;13.312;2022-07-23T08:09:01;18.10;99.90
33699;DHT22;20032;52.436;13.312;2022-07-23T08:11:27;18.20;99.90
33699;DHT22;20032;52.436;13.312;2022-07-23T08:13:52;18.30;99.90
33699;DHT22;20032;52.436;13.312;2022-07-23T08:16:18;18.50;99.90
33699;DHT22;20032;52.436;13.312;2022-07-23T08:18:43;18.60;99.90
33699;DHT22;20032;52.436;13.312;2022-07-23T08:21:09;18.60;99.90
33699;DHT22;20032;52.436;13.312;2022-07-23T08:23:34;18.60;99.90
33699;DHT22;20032;52.436;13.312;2022-07-23T08:26:00;18.80;99.90
33699;DHT22;20032;52.436;13.312;2022-07-23T08:28:26;18.80;99.90
33699;DHT22;20032;52.436;13.312;2022-07-23T08:30:52;18.90;99.90
33699;DHT22;20032;52.436;13.312;2022-07-23T08:33:18;18.80;99.90
33699;DHT22;20032;52.436;13.312;2022-07-23T08:35:46;18.90;99.90
33699;DHT22;20032;52.436;13.312;2022-07-23T08:38:15;19.00;99.90
33699;DHT22;20032;52.436;13.312;2022-07-23T08:40:45;18.80;99.90
33699;DHT22;20032;52.436;13.312;2022-07-23T08:43:14;19.00;99.90
33699;DHT22;20032;52.436;13.312;2022-07-23T08:45:41;18.90;99.90
33699;DHT22;20032;52.436;13.312;2022-07-23T08:48:08;18.80;99.90
33699;DHT22;20032;52.436;13.312;2022-07-23T08:50:36;18.90;99.90
33699;DHT22;20032;52.436;13.312;2022-07-23T08:53:05;18.90;99.90
33699;DHT22;20032;52.436;13.312;2022-07-23T08:55:31;19.20;99.90
33699;DHT22;20032;52.436;13.312;2022-07-23T08:57:57;19.20;99.90
33699;DHT22;20032;52.436;13.312;2022-07-23T09:00:23;19.30;99.90
33699;DHT22;20032;52.436;13.312;2022-07-23T09:02:49;19.70;99.90
33699;DHT22;20032;52.436;13.312;2022-07-23T09:05:15;19.80;99.90
33699;DHT22;20032;52.436;13.312;2022-07-23T09:08:03;19.80;99.90
33699;DHT22;20032;52.436;13.312;2022-07-23T09:10:29;19.90;99.90
33699;DHT22;20032;52.436;13.312;2022-07-23T09:12:54;20.10;99.90
33699;DHT22;20032;52.436;13.312;2022-07-23T09:15:20;20.00;99.90
33699;DHT22;20032;52.436;13.312;2022-07-23T09:17:45;19.90;99.90
33699;DHT22;20032;52.436;13.312;2022-07-23T09:20:14;20.10;99.90
33699;DHT22;20032;52.436;13.312;2022-07-23T09:22:44;20.20;99.90
33699;DHT22;20032;52.436;13.312;2022-07-23T09:25:12;20.00;99.90
33699;DHT22;20032;52.436;13.312;2022-07-23T09:30:16;19.80;99.90
33699;DHT22;20032;52.436;13.312;2022-07-23T09:32:42;19.70;99.90
33699;DHT22;20032;52.436;13.312;2022-07-23T09:35:08;19.80;99.90
33699;DHT22;20032;52.436;13.312;2022-07-23T09:37:33;19.70;99.90
33699;DHT22;20032;52.436;13.312;2022-07-23T09:40:09;19.70;99.90
33699;DHT22;20032;52.436;13.312;2022-07-23T09:42:37;19.70;99.90
33699;DHT22;20032;52.436;13.312;2022-07-23T09:45:03;19.80;99.90
33699;DHT22;20032;52.436;13.312;2022-07-23T09:47:30;19.80;99.90
33699;DHT22;20032;52.436;13.312;2022-07-23T09:50:11;20.00;99.90
33699;DHT22;20032;52.436;13.312;2022-07-23T09:52:48;20.10;99.90
33699;DHT22;20032;52.436;13.312;2022-07-23T09:55:15;20.20;99.90
33699;DHT22;20032;52.436;13.312;2022-07-23T09:57:42;20.30;99.90
33699;DHT22;20032;52.436;13.312;2022-07-23T10:00:12;20.50;99.90
33699;DHT22;20032;52.436;13.312;2022-07-23T10:02:39;20.80;99.90
33699;DHT22;20032;52.436;13.312;2022-07-23T10:05:05;21.00;99.90
33699;DHT22;20032;52.436;13.312;2022-07-23T10:07:32;21.00;99.90
33699;DHT22;20032;52.436;13.312;2022-07-23T10:09:59;21.10;99.90
33699;DHT22;20032;52.436;13.312;2022-07-23T10:12:25;21.30;99.90
33699;DHT22;20032;52.436;13.312;2022-07-23T10:15:11;21.30;99.90
33699;DHT22;20032;52.436;13.312;2022-07-23T10:17:36;21.40;99.90
33699;DHT22;20032;52.436;13.312;2022-07-23T10:20:03;21.60;99.90
33699;DHT22;20032;52.436;13.312;2022-07-23T10:22:31;21.50;99.90
33699;DHT22;20032;52.436;13.312;2022-07-23T10:25:21;21.30;99.90
33699;DHT22;20032;52.436;13.312;2022-07-23T10:27:58;21.30;99.90
33699;DHT22;20032;52.436;13.312;2022-07-23T10:33:17;22.00;99.90
33699;DHT22;20032;52.436;13.312;2022-07-23T10:35:56;22.30;99.90
33699;DHT22;20032;52.436;13.312;2022-07-23T10:38:27;22.20;99.90
33699;DHT22;20032;52.436;13.312;2022-07-23T10:40:58;21.80;99.90
33699;DHT22;20032;52.436;13.312;2022-07-23T10:43:25;21.50;99.90
33699;DHT22;20032;52.436;13.312;2022-07-23T10:45:51;21.50;99.90
33699;DHT22;20032;52.436;13.312;2022-07-23T10:48:20;21.70;99.90
33699;DHT22;20032;52.436;13.312;2022-07-23T10:51:14;21.90;99.90
33699;DHT22;20032;52.436;13.312;2022-07-23T10:53:56;22.30;99.90
33699;DHT22;20032;52.436;13.312;2022-07-23T10:59:24;23.10;99.90
33699;DHT22;20032;52.436;13.312;2022-07-23T11:01:50;23.30;99.90
33699;DHT22;20032;52.436;13.312;2022-07-23T11:04:16;23.50;99.90
33699;DHT22;20032;52.436;13.312;2022-07-23T11:09:39;24.10;99.90
33699;DHT22;20032;52.436;13.312;2022-07-23T11:17:26;24.30;99.90
33699;DHT22;20032;52.436;13.312;2022-07-23T11:20:12;24.30;99.90
33699;DHT22;20032;52.436;13.312;2022-07-23T11:22:49;24.10;99.90
33699;DHT22;20032;52.436;13.312;2022-07-23T11:25:30;23.90;99.90
33699;DHT22;20032;52.436;13.312;2022-07-23T11:28:15;23.50;99.90
33699;DHT22;20032;52.436;13.312;2022-07-23T11:30:44;23.30;99.90
33699;DHT22;20032;52.436;13.312;2022-07-23T11:35:42;24.30;99.90
33699;DHT22;20032;52.436;13.312;2022-07-23T11:38:21;24.20;99.90
33699;DHT22;20032;52.436;13.312;2022-07-23T11:40:51;23.80;99.90
33699;DHT22;20032;52.436;13.312;2022-07-23T11:43:17;24.30;99.90
33699;DHT22;20032;52.436;13.312;2022-07-23T11:45:46;24.70;99.90
33699;DHT22;20032;52.436;13.312;2022-07-23T11:48:22;25.20;99.90
33699;DHT22;20032;52.436;13.312;2022-07-23T11:50:49;25.90;99.90
33699;DHT22;20032;52.436;13.312;2022-07-23T11:53:32;26.20;98.30
33699;DHT22;20032;52.436;13.312;2022-07-23T11:56:14;26.20;98.70
33699;DHT22;20032;52.436;13.312;2022-07-23T11:58:39;26.40;98.20
33699;DHT22;20032;52.436;13.312;2022-07-23T12:01:18;25.80;98.40
33699;DHT22;20032;52.436;13.312;2022-07-23T12:03:51;25.40;98.50
33699;DHT22;20032;52.436;13.312;2022-07-23T12:06:17;25.00;99.90
33699;DHT22;20032;52.436;13.312;2022-07-23T12:08:43;24.70;99.90
33699;DHT22;20032;52.436;13.312;2022-07-23T12:11:12;24.40;99.90
33699;DHT22;20032;52.436;13.312;2022-07-23T12:13:37;24.20;99.90
33699;DHT22;20032;52.436;13.312;2022-07-23T12:16:03;24.30;99.90
33699;DHT22;20032;52.436;13.312;2022-07-23T12:18:30;24.60;99.90
33699;DHT22;20032;52.436;13.312;2022-07-23T12:20:57;25.30;99.60
33699;DHT22;20032;52.436;13.312;2022-07-23T12:23:25;25.80;98.70
33699;DHT22;20032;52.436;13.312;2022-07-23T12:25:51;26.30;97.20
33699;DHT22;20032;52.436;13.312;2022-07-23T12:28:19;27.00;96.10
33699;DHT22;20032;52.436;13.312;2022-07-23T12:30:53;27.20;96.20
33699;DHT22;20032;52.436;13.312;2022-07-23T12:33:25;27.30;94.90
33699;DHT22;20032;52.436;13.312;2022-07-23T12:35:53;26.20;96.30
33699;DHT22;20032;52.436;13.312;2022-07-23T12:38:21;25.70;97.20
33699;DHT22;20032;52.436;13.312;2022-07-23T12:40:49;25.60;97.50
33699;DHT22;20032;52.436;13.312;2022-07-23T12:43:33;25.60;96.90
33699;DHT22;20032;52.436;13.312;2022-07-23T12:46:04;25.60;96.90
33699;DHT22;20032;52.436;13.312;2022-07-23T12:48:39;25.70;97.20
33699;DHT22;20032;52.436;13.312;2022-07-23T12:51:17;25.60;97.10
33699;DHT22;20032;52.436;13.312;2022-07-23T12:53:45;26.30;96.20
33699;DHT22;20032;52.436;13.312;2022-07-23T12:58:43;26.50;96.20
33699;DHT22;20032;52.436;13.312;2022-07-23T13:01:21;26.20;96.40
33699;DHT22;20032;52.436;13.312;2022-07-23T13:04:07;26.30;96.30
33699;DHT22;20032;52.436;13.312;2022-07-23T13:06:34;26.50;97.30
33699;DHT22;20032;52.436;13.312;2022-07-23T13:09:03;27.30;95.10
33699;DHT22;20032;52.436;13.312;2022-07-23T13:11:29;27.70;95.30
33699;DHT22;20032;52.436;13.312;2022-07-23T13:13:54;27.80;94.60
33699;DHT22;20032;52.436;13.312;2022-07-23T13:16:20;28.60;91.80
33699;DHT22;20032;52.436;13.312;2022-07-23T13:18:45;29.00;91.30
33699;DHT22;20032;52.436;13.312;2022-07-23T13:21:11;29.50;89.50
33699;DHT22;20032;52.436;13.312;2022-07-23T13:23:37;29.50;88.70
33699;DHT22;20032;52.436;13.312;2022-07-23T13:26:02;29.10;89.80
33699;DHT22;20032;52.436;13.312;2022-07-23T13:28:28;29.60;89.00
33699;DHT22;20032;52.436;13.312;2022-07-23T13:30:54;29.80;88.70
33699;DHT22;20032;52.436;13.312;2022-07-23T13:33:21;30.40;87.30
33699;DHT22;20032;52.436;13.312;2022-07-23T13:35:48;30.90;85.60
33699;DHT22;20032;52.436;13.312;2022-07-23T13:38:14;30.20;86.40
33699;DHT22;20032;52.436;13.312;2022-07-23T13:40:41;29.10;86.80
33699;DHT22;20032;52.436;13.312;2022-07-23T13:43:10;29.30;89.20
33699;DHT22;20032;52.436;13.312;2022-07-23T13:45:36;30.20;87.80
33699;DHT22;20032;52.436;13.312;2022-07-23T13:48:02;30.30;84.60
33699;DHT22;20032;52.436;13.312;2022-07-23T13:50:28;30.60;82.60
33699;DHT22;20032;52.436;13.312;2022-07-23T13:52:53;30.40;84.40
33699;DHT22;20032;52.436;13.312;2022-07-23T13:55:19;29.50;85.60
33699;DHT22;20032;52.436;13.312;2022-07-23T13:57:44;28.20;87.80
33699;DHT22;20032;52.436;13.312;2022-07-23T14:00:10;27.30;89.40
33699;DHT22;20032;52.436;13.312;2022-07-23T14:02:38;27.20;90.40
33699;DHT22;20032;52.436;13.312;2022-07-23T14:05:05;27.90;90.50
33699;DHT22;20032;52.436;13.312;2022-07-23T14:07:32;28.50;89.30
33699;DHT22;20032;52.436;13.312;2022-07-23T14:09:57;29.40;86.80
33699;DHT22;20032;52.436;13.312;2022-07-23T14:12:23;29.50;85.80
33699;DHT22;20032;52.436;13.312;2022-07-23T14:14:48;29.20;83.30
33699;DHT22;20032;52.436;13.312;2022-07-23T14:17:14;29.00;83.60
33699;DHT22;20032;52.436;13.312;2022-07-23T14:19:39;29.70;81.80
33699;DHT22;20032;52.436;13.312;2022-07-23T14:22:05;29.30;82.50
33699;DHT22;20032;52.436;13.312;2022-07-23T14:24:30;28.40;82.50
33699;DHT22;20032;52.436;13.312;2022-07-23T14:26:56;28.00;85.50
33699;DHT22;20032;52.436;13.312;2022-07-23T14:29:21;27.90;87.20
33699;DHT22;20032;52.436;13.312;2022-07-23T14:31:47;29.30;84.60
33699;DHT22;20032;52.436;13.312;2022-07-23T14:34:13;30.10;81.50
33699;DHT22;20032;52.436;13.312;2022-07-23T14:36:39;30.90;78.40
33699;DHT22;20032;52.436;13.312;2022-07-23T14:39:05;31.50;77.90
33699;DHT22;20032;52.436;13.312;2022-07-23T14:41:30;31.10;76.70
33699;DHT22;20032;52.436;13.312;2022-07-23T14:43:56;30.00;78.80
33699;DHT22;20032;52.436;13.312;2022-07-23T14:46:21;29.50;81.80
33699;DHT22;20032;52.436;13.312;2022-07-23T14:48:47;29.90;80.90
33699;DHT22;20032;52.436;13.312;2022-07-23T14:51:12;30.70;77.60
33699;DHT22;20032;52.436;13.312;2022-07-23T14:53:38;31.40;77.20
33699;DHT22;20032;52.436;13.312;2022-07-23T14:56:04;31.80;75.20
33699;DHT22;20032;52.436;13.312;2022-07-23T14:58:30;32.20;75.00
33699;DHT22;20032;52.436;13.312;2022-07-23T15:00:55;31.90;75.00
33699;DHT22;20032;52.436;13.312;2022-07-23T15:03:21;32.30;74.50
33699;DHT22;20032;52.436;13.312;2022-07-23T15:05:46;32.60;74.80
33699;DHT22;20032;52.436;13.312;2022-07-23T15:08:12;33.00;70.70
33699;DHT22;20032;52.436;13.312;2022-07-23T15:10:37;33.20;69.00
33699;DHT22;20032;52.436;13.312;2022-07-23T15:13:03;33.60;69.40
33699;DHT22;20032;52.436;13.312;2022-07-23T15:15:28;33.90;68.00
33699;DHT22;20032;52.436;13.312;2022-07-23T15:17:54;33.50;68.80
33699;DHT22;20032;52.436;13.312;2022-07-23T15:20:20;33.10;68.10
33699;DHT22;20032;52.436;13.312;2022-07-23T15:22:45;33.60;67.60
33699;DHT22;20032;52.436;13.312;2022-07-23T15:25:13;33.60;67.00
33699;DHT22;20032;52.436;13.312;2022-07-23T15:27:38;33.10;66.90
33699;DHT22;20032;52.436;13.312;2022-07-23T15:30:04;32.40;69.00
33699;DHT22;20032;52.436;13.312;2022-07-23T15:32:30;31.40;69.50
33699;DHT22;20032;52.436;13.312;2022-07-23T15:34:55;31.10;70.10
33699;DHT22;20032;52.436;13.312;2022-07-23T15:37:22;31.40;70.20